Time;durP1;ratioP1;P1;durP2;ratioP2;P2;SDS_P1;SDS_P2;PMS_P1;PMS_P2;Temp;Humidity;BMP_temperature;BMP_pressure;BME280_temperature;BME280_humidity;BME280_pressure;Samples;Min_cycle;Max_cycle;Signal;HPM_P1;HPM_P2
2023/01/06 00:00:25;;;;;;;22.40;11.65;;;;;;;;;;5152928;27;20054;-73
2023/01/06 00:02:51;;;;;;;22.20;10.93;;;;;;;;;;5153096;27;20027;-74
2023/01/06 00:05:16;;;;;;;21.88;10.70;;;;;;;;;;5152692;27;20046;-72
2023/01/06 00:07:43;;;;;;;19.75;9.88;;;;;;;;;;5152205;27;20030;-75
2023/01/06 00:10:10;;;;;;;20.55;10.02;;;;;;;;;;5152550;27;20535;-71
2023/01/06 00:12:36;;;;;;;18.88;9.80;;;;;;;;;;5152860;27;20068;-75
2023/01/06 00:15:01;;;;;;;17.52;9.82;;;;;;;;;;5152295;27;20027;-74
2023/01/06 00:17:27;;;;;;;18.30;9.65;;;;;;;;;;5152755;27;20446;-74
2023/01/06 00:19:52;;;;;;;16.67;9.48;;;;;;;;;;5152571;27;20019;-71
2023/01/06 00:22:17;;;;;;;17.38;9.25;;;;;;;;;;5152511;27;20046;-75
2023/01/06 00:24:43;;;;;;;15.73;8.77;;;;;;;;;;5152387;27;20592;-67
2023/01/06 00:27:09;;;;;;;15.93;9.18;;;;;;;;;;5152457;27;20027;-75
2023/01/06 00:29:34;;;;;;;18.90;9.20;;;;;;;;;;5152388;27;20098;-73
2023/01/06 00:32:00;;;;;;;15.32;9.10;;;;;;;;;;5150739;27;20019;-75
2023/01/06 00:34:27;;;;;;;15.02;8.82;;;;;;;;;;5152156;27;20025;-71
2023/01/06 00:36:52;;;;;;;18.35;9.45;;;;;;;;;;5152468;27;20023;-74
2023/01/06 00:39:17;;;;;;;14.27;8.98;;;;;;;;;;5152220;27;20486;-73
2023/01/06 00:44:27;;;;;;;19.52;9.40;;;;;;;;;;5151954;27;20131;-75
2023/01/06 00:46:52;;;;;;;17.45;9.25;;;;;;;;;;5151966;27;20462;-74
2023/01/06 00:49:17;;;;;;;19.08;9.75;;;;;;;;;;5151978;27;20102;-76
2023/01/06 00:51:43;;;;;;;17.23;9.90;;;;;;;;;;5151973;27;20053;-73
2023/01/06 00:54:11;;;;;;;18.55;9.52;;;;;;;;;;5152232;27;20530;-73
2023/01/06 00:56:43;;;;;;;18.08;9.70;;;;;;;;;;5151957;27;20018;-73
2023/01/06 00:59:10;;;;;;;20.23;10.05;;;;;;;;;;5152227;27;20062;-69
2023/01/06 01:01:36;;;;;;;16.70;9.32;;;;;;;;;;5152078;27;20443;-66
2023/01/06 01:04:02;;;;;;;17.02;9.57;;;;;;;;;;5151956;27;20054;-68
2023/01/06 01:06:27;;;;;;;19.38;9.63;;;;;;;;;;5154936;27;20023;-72
2023/01/06 01:08:54;;;;;;;17.58;9.45;;;;;;;;;;5156084;27;20022;-73
2023/01/06 01:14:03;;;;;;;16.40;9.45;;;;;;;;;;5156422;27;20021;-75
2023/01/06 01:16:29;;;;;;;15.63;9.15;;;;;;;;;;5155882;27;20014;-72
2023/01/06 01:18:54;;;;;;;15.63;8.98;;;;;;;;;;5155962;27;20579;-73
2023/01/06 01:21:20;;;;;;;16.58;9.23;;;;;;;;;;5154762;27;20023;-68
2023/01/06 01:23:45;;;;;;;16.65;9.27;;;;;;;;;;5156098;27;20023;-67
2023/01/06 01:26:10;;;;;;;17.38;8.80;;;;;;;;;;5155731;27;20054;-65
2023/01/06 01:28:36;;;;;;;14.98;9.13;;;;;;;;;;5155829;27;20106;-68
2023/01/06 01:31:02;;;;;;;15.68;8.82;;;;;;;;;;5155612;27;20588;-66
2023/01/06 01:33:28;;;;;;;17.23;8.45;;;;;;;;;;5155697;27;20030;-66
2023/01/06 01:35:54;;;;;;;13.90;8.73;;;;;;;;;;5155547;27;20046;-67
2023/01/06 01:38:19;;;;;;;17.52;9.50;;;;;;;;;;5155794;27;20618;-66
2023/01/06 01:40:49;;;;;;;16.35;9.43;;;;;;;;;;5155878;27;20097;-66
2023/01/06 01:43:15;;;;;;;14.63;8.90;;;;;;;;;;5155713;27;20030;-66
2023/01/06 01:45:44;;;;;;;17.08;9.50;;;;;;;;;;5155037;27;20502;-70
2023/01/06 01:48:34;;;;;;;14.55;9.00;;;;;;;;;;5155389;27;20386;-66
2023/01/06 01:51:03;;;;;;;16.98;9.55;;;;;;;;;;5147607;27;20043;-66
2023/01/06 01:53:50;;;;;;;17.02;9.07;;;;;;;;;;5155560;27;20030;-67
2023/01/06 01:56:20;;;;;;;17.00;8.95;;;;;;;;;;5153823;27;20386;-68
2023/01/06 01:58:55;;;;;;;15.88;8.93;;;;;;;;;;5155486;27;20097;-67
2023/01/06 02:01:21;;;;;;;16.88;9.55;;;;;;;;;;5155365;27;20034;-67
2023/01/06 02:03:47;;;;;;;19.25;9.60;;;;;;;;;;5155106;27;20030;-66
2023/01/06 02:06:24;;;;;;;14.93;8.65;;;;;;;;;;5154915;27;20075;-69
2023/01/06 02:09:21;;;;;;;15.55;9.77;;;;;;;;;;5155043;27;20059;-67
2023/01/06 02:11:50;;;;;;;15.68;9.25;;;;;;;;;;5155210;27;20545;-66
2023/01/06 02:14:27;;;;;;;16.48;9.18;;;;;;;;;;5155027;27;20034;-66
2023/01/06 02:16:55;;;;;;;16.60;9.07;;;;;;;;;;5154017;27;20087;-68
2023/01/06 02:20:17;;;;;;;15.65;8.77;;;;;;;;;;5154849;27;20478;-67
2023/01/06 02:23:10;;;;;;;15.25;8.88;;;;;;;;;;5130559;27;20035;-65
2023/01/06 02:25:52;;;;;;;15.90;9.25;;;;;;;;;;5154827;27;20031;-67
2023/01/06 02:28:58;;;;;;;17.00;9.25;;;;;;;;;;5154847;27;20482;-67
2023/01/06 02:31:47;;;;;;;16.75;8.70;;;;;;;;;;5154721;27;20070;-70
2023/01/06 02:34:20;;;;;;;15.70;8.45;;;;;;;;;;5154396;27;20030;-67
2023/01/06 02:37:15;;;;;;;15.25;8.32;;;;;;;;;;5154519;27;20466;-67
2023/01/06 02:40:21;;;;;;;19.23;8.88;;;;;;;;;;5154570;27;20023;-66
2023/01/06 02:43:14;;;;;;;15.63;8.13;;;;;;;;;;5154420;27;20030;-66
2023/01/06 02:46:27;;;;;;;16.50;8.35;;;;;;;;;;5154017;27;20103;-69
2023/01/06 02:49:00;;;;;;;14.20;7.97;;;;;;;;;;5089740;28;20024;-67
2023/01/06 02:51:53;;;;;;;13.60;7.80;;;;;;;;;;5149405;27;20041;-68
2023/01/06 02:54:29;;;;;;;13.15;8.50;;;;;;;;;;5154283;27;20063;-67
2023/01/06 02:57:23;;;;;;;16.20;8.40;;;;;;;;;;5154138;27;20097;-67
2023/01/06 03:00:00;;;;;;;14.02;7.97;;;;;;;;;;5097540;27;20036;-67
2023/01/06 03:02:26;;;;;;;14.60;7.90;;;;;;;;;;5154193;27;20022;-66
2023/01/06 03:04:54;;;;;;;14.35;7.88;;;;;;;;;;5152564;27;20465;-67
2023/01/06 03:07:21;;;;;;;12.93;7.53;;;;;;;;;;5153604;27;20034;-66
2023/01/06 03:09:51;;;;;;;14.10;8.10;;;;;;;;;;5153785;27;20402;-66
2023/01/06 03:12:42;;;;;;;16.98;7.60;;;;;;;;;;5153930;27;20029;-66
2023/01/06 03:15:08;;;;;;;13.43;7.35;;;;;;;;;;5153866;27;20091;-69
2023/01/06 03:17:33;;;;;;;12.43;7.38;;;;;;;;;;5153631;27;20042;-69
2023/01/06 03:19:59;;;;;;;14.52;8.00;;;;;;;;;;5153853;27;20034;-68
2023/01/06 03:22:25;;;;;;;15.48;7.78;;;;;;;;;;5152433;27;20439;-68
2023/01/06 03:24:51;;;;;;;13.43;7.72;;;;;;;;;;5153744;27;20098;-67
2023/01/06 03:27:20;;;;;;;13.98;8.07;;;;;;;;;;5153399;27;20486;-67
2023/01/06 03:29:46;;;;;;;15.32;7.75;;;;;;;;;;5153244;27;20593;-66
2023/01/06 03:32:59;;;;;;;13.07;7.55;;;;;;;;;;5153606;27;20121;-66
2023/01/06 03:35:43;;;;;;;14.60;8.27;;;;;;;;;;5153490;27;20030;-68
2023/01/06 03:38:35;;;;;;;14.63;7.90;;;;;;;;;;5153602;27;20026;-67
2023/01/06 03:41:22;;;;;;;14.25;7.80;;;;;;;;;;5152193;27;20110;-66
2023/01/06 03:44:12;;;;;;;13.60;7.55;;;;;;;;;;5153151;27;20103;-67
2023/01/06 03:46:44;;;;;;;13.40;7.65;;;;;;;;;;5152922;27;20033;-67
2023/01/06 03:49:17;;;;;;;14.35;7.72;;;;;;;;;;5153060;27;20067;-67
2023/01/06 03:52:04;;;;;;;13.82;7.63;;;;;;;;;;5153220;27;20031;-66
2023/01/06 03:54:38;;;;;;;12.77;7.85;;;;;;;;;;5153128;27;20019;-72
2023/01/06 03:57:09;;;;;;;13.57;7.97;;;;;;;;;;5152928;27;20110;-66
2023/01/06 03:59:40;;;;;;;11.95;7.57;;;;;;;;;;5153182;27;20083;-66
2023/01/06 04:02:06;;;;;;;16.88;7.13;;;;;;;;;;5153115;27;20106;-66
2023/01/06 04:04:31;;;;;;;12.25;7.03;;;;;;;;;;5152813;27;20101;-69
2023/01/06 04:06:57;;;;;;;14.18;7.50;;;;;;;;;;5152537;27;20027;-66
2023/01/06 04:09:22;;;;;;;15.00;7.57;;;;;;;;;;5152501;27;20029;-67
2023/01/06 04:14:31;;;;;;;13.27;7.50;;;;;;;;;;5152817;27;20055;-66
2023/01/06 04:16:57;;;;;;;11.73;6.53;;;;;;;;;;5152271;27;20015;-66
2023/01/06 04:19:22;;;;;;;11.63;6.60;;;;;;;;;;5152535;27;20471;-67
2023/01/06 04:21:47;;;;;;;12.02;6.43;;;;;;;;;;5152581;27;20073;-68
2023/01/06 04:24:13;;;;;;;11.60;7.05;;;;;;;;;;5152609;27;20467;-66
2023/01/06 04:26:38;;;;;;;13.15;7.00;;;;;;;;;;5152253;27;20476;-66
2023/01/06 04:29:04;;;;;;;13.82;6.85;;;;;;;;;;5152591;27;20368;-67
2023/01/06 04:31:29;;;;;;;12.02;7.07;;;;;;;;;;5152606;27;20496;-67
2023/01/06 04:33:55;;;;;;;14.68;7.07;;;;;;;;;;5152569;27;20029;-67
2023/01/06 04:36:20;;;;;;;12.30;6.88;;;;;;;;;;5152155;27;20022;-67
2023/01/06 04:38:46;;;;;;;13.07;6.70;;;;;;;;;;5152346;27;20046;-67
2023/01/06 04:41:11;;;;;;;12.52;6.50;;;;;;;;;;5151706;27;20022;-66
2023/01/06 04:43:36;;;;;;;12.80;6.20;;;;;;;;;;5152070;27;20027;-67
2023/01/06 04:46:02;;;;;;;15.13;6.72;;;;;;;;;;5152103;27;20019;-66
2023/01/06 04:48:28;;;;;;;10.38;6.47;;;;;;;;;;5152263;27;20111;-67
2023/01/06 04:51:06;;;;;;;12.02;6.88;;;;;;;;;;5152345;27;20031;-66
2023/01/06 04:53:36;;;;;;;11.77;6.50;;;;;;;;;;5152287;27;20113;-66
2023/01/06 04:56:06;;;;;;;13.35;6.35;;;;;;;;;;5152038;27;20027;-66
2023/01/06 04:58:32;;;;;;;13.00;6.63;;;;;;;;;;5152009;27;20121;-68
2023/01/06 05:01:05;;;;;;;10.00;6.13;;;;;;;;;;5152036;27;20458;-69
2023/01/06 05:03:31;;;;;;;11.60;6.63;;;;;;;;;;5151808;27;20393;-67
2023/01/06 05:06:04;;;;;;;13.10;6.75;;;;;;;;;;5152205;27;20027;-66
2023/01/06 05:08:30;;;;;;;10.82;6.50;;;;;;;;;;5150603;27;20137;-66
2023/01/06 05:11:09;;;;;;;11.55;6.38;;;;;;;;;;5153211;27;20030;-68
2023/01/06 05:13:36;;;;;;;9.05;6.13;;;;;;;;;;5153033;27;20386;-67
2023/01/06 05:16:09;;;;;;;11.68;6.47;;;;;;;;;;5153523;27;20086;-66
2023/01/06 05:18:35;;;;;;;12.10;6.55;;;;;;;;;;5152220;27;20022;-69
2023/01/06 05:21:00;;;;;;;12.50;6.45;;;;;;;;;;5152021;27;20466;-68
2023/01/06 05:23:26;;;;;;;13.27;6.72;;;;;;;;;;5150803;27;20026;-66
2023/01/06 05:25:52;;;;;;;11.63;6.28;;;;;;;;;;5152038;27;20038;-67
2023/01/06 05:28:18;;;;;;;10.38;5.90;;;;;;;;;;5151696;27;20536;-67
2023/01/06 05:30:43;;;;;;;13.52;6.32;;;;;;;;;;5151791;27;20394;-67
2023/01/06 05:33:09;;;;;;;13.25;6.75;;;;;;;;;;5151694;27;20034;-66
2023/01/06 05:35:34;;;;;;;11.60;7.05;;;;;;;;;;5151728;27;20448;-67
2023/01/06 05:38:00;;;;;;;11.52;6.00;;;;;;;;;;5151446;27;20538;-67
2023/01/06 05:40:25;;;;;;;11.23;5.95;;;;;;;;;;5151507;27;20075;-67
2023/01/06 05:42:54;;;;;;;13.63;6.47;;;;;;;;;;5151722;27;20094;-67
2023/01/06 05:45:21;;;;;;;12.95;6.75;;;;;;;;;;5151579;27;20046;-67
2023/01/06 05:47:46;;;;;;;9.27;6.00;;;;;;;;;;5151499;27;20023;-67
2023/01/06 05:50:11;;;;;;;11.07;6.10;;;;;;;;;;5151644;27;20022;-67
2023/01/06 05:52:37;;;;;;;11.95;6.35;;;;;;;;;;5154740;27;20022;-69
2023/01/06 05:55:02;;;;;;;12.63;6.18;;;;;;;;;;5155322;27;20462;-67
2023/01/06 05:57:31;;;;;;;13.60;6.18;;;;;;;;;;5155012;27;20497;-66
2023/01/06 05:59:56;;;;;;;12.20;6.35;;;;;;;;;;5155251;27;20023;-67
2023/01/06 06:02:21;;;;;;;12.23;6.75;;;;;;;;;;5155337;27;20018;-66
2023/01/06 06:04:47;;;;;;;9.68;6.13;;;;;;;;;;5155204;27;20019;-67
2023/01/06 06:07:12;;;;;;;11.50;6.63;;;;;;;;;;5155031;27;20375;-66
2023/01/06 06:09:37;;;;;;;11.82;6.80;;;;;;;;;;5155008;27;20034;-66
2023/01/06 06:12:03;;;;;;;12.70;6.32;;;;;;;;;;5154951;27;20026;-66
2023/01/06 06:14:28;;;;;;;10.77;6.38;;;;;;;;;;5154763;27;20554;-66
2023/01/06 06:16:55;;;;;;;13.50;6.63;;;;;;;;;;5154651;27;20033;-65
2023/01/06 06:19:20;;;;;;;11.00;6.25;;;;;;;;;;5154642;27;20110;-66
2023/01/06 06:21:45;;;;;;;12.77;6.95;;;;;;;;;;5155081;27;20110;-66
2023/01/06 06:24:11;;;;;;;11.63;6.32;;;;;;;;;;5154904;27;20386;-66
2023/01/06 06:26:36;;;;;;;11.50;6.68;;;;;;;;;;5154742;27;20114;-67
2023/01/06 06:29:04;;;;;;;11.18;6.18;;;;;;;;;;5154761;27;20117;-67
2023/01/06 06:31:29;;;;;;;11.63;6.05;;;;;;;;;;5154610;27;20023;-67
2023/01/06 06:33:57;;;;;;;11.98;6.50;;;;;;;;;;5154596;27;20027;-67
2023/01/06 06:36:22;;;;;;;10.32;5.80;;;;;;;;;;5154454;27;20583;-66
2023/01/06 06:38:50;;;;;;;11.85;6.32;;;;;;;;;;5154554;27;20055;-66
2023/01/06 06:41:15;;;;;;;10.98;6.22;;;;;;;;;;5154707;27;20110;-65
2023/01/06 06:43:41;;;;;;;12.02;6.47;;;;;;;;;;5154281;27;20102;-67
2023/01/06 06:46:07;;;;;;;11.20;6.68;;;;;;;;;;5154612;27;20183;-67
2023/01/06 06:48:33;;;;;;;13.68;6.43;;;;;;;;;;5153993;27;20055;-67
2023/01/06 06:51:00;;;;;;;8.93;5.70;;;;;;;;;;5154163;27;20030;-67
2023/01/06 06:53:26;;;;;;;10.73;6.25;;;;;;;;;;5152795;27;20037;-67
2023/01/06 06:55:53;;;;;;;9.93;5.90;;;;;;;;;;5154042;27;20026;-66
2023/01/06 06:58:18;;;;;;;11.85;6.20;;;;;;;;;;5154207;27;20027;-66
2023/01/06 07:00:43;;;;;;;11.80;5.95;;;;;;;;;;5154233;27;20022;-66
2023/01/06 07:03:09;;;;;;;10.93;5.63;;;;;;;;;;5153356;27;20026;-66
2023/01/06 07:05:34;;;;;;;11.63;6.00;;;;;;;;;;5154186;27;20045;-66
2023/01/06 07:08:00;;;;;;;10.82;5.95;;;;;;;;;;5152517;27;20026;-66
2023/01/06 07:10:25;;;;;;;11.02;5.72;;;;;;;;;;5153663;27;20030;-66
2023/01/06 07:12:51;;;;;;;10.25;5.63;;;;;;;;;;5153908;27;20019;-66
2023/01/06 07:15:16;;;;;;;10.20;5.30;;;;;;;;;;5153851;27;20470;-67
2023/01/06 07:17:42;;;;;;;9.90;5.45;;;;;;;;;;5153639;27;20026;-66
2023/01/06 07:20:08;;;;;;;11.57;5.70;;;;;;;;;;5153577;27;20027;-66
2023/01/06 07:22:38;;;;;;;12.70;5.95;;;;;;;;;;5153829;27;20485;-66
2023/01/06 07:25:05;;;;;;;11.02;6.00;;;;;;;;;;5153734;27;20031;-69
2023/01/06 07:27:31;;;;;;;11.18;6.25;;;;;;;;;;5153433;27;20024;-66
2023/01/06 07:29:56;;;;;;;12.10;6.10;;;;;;;;;;5153522;27;20075;-66
2023/01/06 07:32:21;;;;;;;12.75;6.00;;;;;;;;;;5153417;27;20019;-66
2023/01/06 07:34:47;;;;;;;10.95;6.00;;;;;;;;;;5153069;27;20109;-66
2023/01/06 07:37:12;;;;;;;9.15;5.45;;;;;;;;;;5153269;27;20034;-67
2023/01/06 07:39:37;;;;;;;8.52;5.80;;;;;;;;;;5153339;27;20637;-66
2023/01/06 07:42:03;;;;;;;9.85;5.70;;;;;;;;;;5153435;27;20105;-67
2023/01/06 07:44:28;;;;;;;10.23;5.72;;;;;;;;;;5153083;27;20394;-66
2023/01/06 07:46:54;;;;;;;9.15;5.30;;;;;;;;;;5153208;27;20048;-69
2023/01/06 07:49:19;;;;;;;9.45;5.32;;;;;;;;;;5152807;27;20024;-67
2023/01/06 07:51:44;;;;;;;10.07;5.25;;;;;;;;;;5153039;27;20470;-67
2023/01/06 07:54:10;;;;;;;10.90;5.53;;;;;;;;;;5152972;27;20035;-68
2023/01/06 07:56:35;;;;;;;9.98;5.80;;;;;;;;;;5152901;27;20073;-68
2023/01/06 07:59:00;;;;;;;10.20;5.93;;;;;;;;;;5152757;27;20031;-67
2023/01/06 08:01:26;;;;;;;13.38;5.88;;;;;;;;;;5153035;27;20442;-72
2023/01/06 08:03:51;;;;;;;10.00;5.20;;;;;;;;;;5152776;27;20018;-69
2023/01/06 08:06:16;;;;;;;12.13;5.70;;;;;;;;;;5153441;27;20087;-68
2023/01/06 08:08:42;;;;;;;12.82;5.90;;;;;;;;;;5152383;27;20019;-68
2023/01/06 08:11:10;;;;;;;10.60;5.35;;;;;;;;;;5152586;27;20525;-68
2023/01/06 08:13:36;;;;;;;10.25;5.20;;;;;;;;;;5152703;27;20019;-67
2023/01/06 08:16:09;;;;;;;9.75;5.20;;;;;;;;;;5151717;27;20035;-67
2023/01/06 08:18:35;;;;;;;11.45;5.10;;;;;;;;;;5152354;27;20026;-68
2023/01/06 08:21:02;;;;;;;9.88;5.00;;;;;;;;;;5152528;27;20037;-68
2023/01/06 08:23:29;;;;;;;10.93;5.13;;;;;;;;;;5152578;27;20034;-67
2023/01/06 08:26:09;;;;;;;13.32;5.68;;;;;;;;;;5152483;27;20041;-67
2023/01/06 08:28:35;;;;;;;11.30;5.40;;;;;;;;;;5152302;27;20442;-67
2023/01/06 08:31:01;;;;;;;10.43;5.35;;;;;;;;;;5152266;27;20031;-67
2023/01/06 08:33:26;;;;;;;11.55;5.25;;;;;;;;;;5152148;27;20022;-67
2023/01/06 08:36:01;;;;;;;7.78;5.05;;;;;;;;;;5152285;27;20114;-67
2023/01/06 08:38:28;;;;;;;10.75;5.13;;;;;;;;;;5152373;27;20541;-66
2023/01/06 08:40:54;;;;;;;14.90;5.32;;;;;;;;;;5152578;27;20023;-66
2023/01/06 08:43:20;;;;;;;14.52;5.43;;;;;;;;;;5152422;27;20026;-66
2023/01/06 08:45:45;;;;;;;9.35;5.00;;;;;;;;;;5152316;27;20046;-67
2023/01/06 08:48:11;;;;;;;14.13;5.53;;;;;;;;;;5151715;27;20448;-66
2023/01/06 08:50:38;;;;;;;9.68;5.30;;;;;;;;;;5150787;27;20030;-66
2023/01/06 08:53:03;;;;;;;7.95;5.20;;;;;;;;;;5152162;27;20106;-66
2023/01/06 08:55:29;;;;;;;9.68;5.13;;;;;;;;;;5151991;27;20117;-66
2023/01/06 08:57:54;;;;;;;11.43;5.18;;;;;;;;;;5152001;27;20025;-67
2023/01/06 09:00:19;;;;;;;10.65;5.25;;;;;;;;;;5152203;27;20023;-67
2023/01/06 09:02:45;;;;;;;13.15;5.18;;;;;;;;;;5152068;27;20060;-66
2023/01/06 09:05:10;;;;;;;9.50;5.40;;;;;;;;;;5151834;27;20105;-68
2023/01/06 09:07:36;;;;;;;12.15;5.35;;;;;;;;;;5151602;27;20109;-66
2023/01/06 09:10:01;;;;;;;9.20;4.95;;;;;;;;;;5151794;27;20097;-68
2023/01/06 09:12:27;;;;;;;16.23;5.57;;;;;;;;;;5151937;27;20470;-67
2023/01/06 09:14:52;;;;;;;12.88;5.35;;;;;;;;;;5151908;27;20505;-68
2023/01/06 09:17:17;;;;;;;10.20;5.45;;;;;;;;;;5151920;27;20155;-66
2023/01/06 09:19:43;;;;;;;8.75;5.13;;;;;;;;;;5151533;27;20027;-67
2023/01/06 09:22:08;;;;;;;9.90;5.55;;;;;;;;;;5152059;27;20064;-68
2023/01/06 09:24:33;;;;;;;19.83;5.78;;;;;;;;;;5151839;27;20381;-65
2023/01/06 09:26:59;;;;;;;27.65;6.10;;;;;;;;;;5154049;27;20026;-67
2023/01/06 09:29:24;;;;;;;9.35;5.63;;;;;;;;;;5155594;27;20071;-68
2023/01/06 09:31:49;;;;;;;10.00;5.57;;;;;;;;;;5155872;27;20474;-68
2023/01/06 09:34:15;;;;;;;8.70;5.13;;;;;;;;;;5155575;27;20104;-67
2023/01/06 09:36:40;;;;;;;10.98;5.25;;;;;;;;;;5155831;27;20114;-67
2023/01/06 09:39:06;;;;;;;12.40;5.82;;;;;;;;;;5155444;27;20053;-67
2023/01/06 09:41:56;;;;;;;17.77;5.13;;;;;;;;;;5155729;27;20027;-67
2023/01/06 09:44:35;;;;;;;10.60;4.95;;;;;;;;;;5155147;27;20045;-67
2023/01/06 09:47:01;;;;;;;12.57;5.03;;;;;;;;;;5154177;27;20110;-71
2023/01/06 09:49:41;;;;;;;9.02;5.05;;;;;;;;;;5155129;27;20022;-66
2023/01/06 09:52:16;;;;;;;17.80;7.22;;;;;;;;;;5155390;27;20026;-68
2023/01/06 09:55:01;;;;;;;11.25;5.13;;;;;;;;;;5155478;27;20143;-70
2023/01/06 09:57:32;;;;;;;11.95;5.40;;;;;;;;;;5154928;27;20057;-70
2023/01/06 10:00:02;;;;;;;10.73;4.93;;;;;;;;;;5155282;27;20022;-66
2023/01/06 10:02:36;;;;;;;13.02;5.43;;;;;;;;;;5155262;27;20014;-66
2023/01/06 10:05:17;;;;;;;11.07;4.88;;;;;;;;;;5155126;27;20019;-71
2023/01/06 10:07:59;;;;;;;12.13;5.25;;;;;;;;;;5154975;27;20022;-66
2023/01/06 10:10:50;;;;;;;11.43;5.55;;;;;;;;;;5154943;27;20133;-67
2023/01/06 10:13:31;;;;;;;11.75;5.10;;;;;;;;;;5155179;27;20030;-67
2023/01/06 10:16:05;;;;;;;12.48;6.03;;;;;;;;;;5155124;27;20035;-67
2023/01/06 10:18:33;;;;;;;13.98;6.00;;;;;;;;;;5154707;27;20027;-66
2023/01/06 10:21:10;;;;;;;14.05;5.35;;;;;;;;;;5154979;27;20030;-66
2023/01/06 10:24:01;;;;;;;9.20;5.30;;;;;;;;;;5154780;27;20485;-67
2023/01/06 10:26:44;;;;;;;17.08;5.90;;;;;;;;;;5153470;27;20106;-69
2023/01/06 10:29:18;;;;;;;12.40;5.68;;;;;;;;;;5154459;27;20019;-68
2023/01/06 10:31:46;;;;;;;11.68;5.60;;;;;;;;;;5154623;27;20019;-74
2023/01/06 10:34:19;;;;;;;10.07;5.78;;;;;;;;;;5154363;27;20011;-68
2023/01/06 10:36:51;;;;;;;13.50;5.50;;;;;;;;;;5153338;27;20557;-68
2023/01/06 10:39:20;;;;;;;10.52;5.38;;;;;;;;;;5153284;27;20107;-68
2023/01/06 10:44:54;;;;;;;14.43;5.35;;;;;;;;;;5154180;27;20418;-67
2023/01/06 10:47:31;;;;;;;9.38;5.28;;;;;;;;;;5154228;27;20411;-69
2023/01/06 10:49:58;;;;;;;13.50;6.28;;;;;;;;;;5153813;27;20049;-68
2023/01/06 10:52:25;;;;;;;11.13;5.50;;;;;;;;;;5154514;27;20098;-68
2023/01/06 10:54:54;;;;;;;9.88;5.68;;;;;;;;;;5154196;27;20053;-68
2023/01/06 10:57:25;;;;;;;17.60;5.93;;;;;;;;;;5154240;27;20027;-68
2023/01/06 11:00:22;;;;;;;11.65;5.72;;;;;;;;;;5154005;27;20027;-68
2023/01/06 11:02:53;;;;;;;22.77;6.30;;;;;;;;;;5154127;27;20026;-67
2023/01/06 11:05:22;;;;;;;13.25;5.20;;;;;;;;;;5153933;27;20132;-67
2023/01/06 11:07:56;;;;;;;26.05;5.65;;;;;;;;;;5153857;27;20029;-68
2023/01/06 11:10:28;;;;;;;18.58;5.70;;;;;;;;;;5153764;27;20022;-68
2023/01/06 11:12:57;;;;;;;12.02;5.00;;;;;;;;;;5153978;27;20410;-69
2023/01/06 11:15:28;;;;;;;11.00;4.70;;;;;;;;;;5153855;27;20478;-71
2023/01/06 11:17:54;;;;;;;9.10;5.20;;;;;;;;;;5153867;27;20037;-68
2023/01/06 11:20:19;;;;;;;10.13;4.80;;;;;;;;;;5153243;27;20027;-68
2023/01/06 11:22:44;;;;;;;11.63;4.82;;;;;;;;;;5153606;27;20023;-67
2023/01/06 11:25:19;;;;;;;10.07;4.95;;;;;;;;;;5153550;27;20042;-67
2023/01/06 11:27:45;;;;;;;15.55;5.68;;;;;;;;;;5153492;27;20022;-67
2023/01/06 11:30:24;;;;;;;11.40;5.43;;;;;;;;;;5153351;27;20027;-68
2023/01/06 11:32:49;;;;;;;12.18;5.97;;;;;;;;;;5153346;27;20027;-67
2023/01/06 11:35:19;;;;;;;18.02;6.32;;;;;;;;;;5153157;27;20102;-67
2023/01/06 11:37:44;;;;;;;13.90;6.30;;;;;;;;;;5153328;27;20019;-68
2023/01/06 11:40:20;;;;;;;12.15;6.30;;;;;;;;;;5152983;27;20114;-67
2023/01/06 11:42:53;;;;;;;10.95;5.90;;;;;;;;;;5153147;27;20030;-67
2023/01/06 11:45:35;;;;;;;14.63;6.20;;;;;;;;;;5151508;27;20602;-67
2023/01/06 11:48:06;;;;;;;11.90;6.00;;;;;;;;;;5153173;27;20035;-67
2023/01/06 11:50:32;;;;;;;12.52;6.30;;;;;;;;;;5152727;27;20427;-67
2023/01/06 11:53:02;;;;;;;12.50;6.68;;;;;;;;;;5153093;27;20111;-67
2023/01/06 11:55:29;;;;;;;12.38;6.50;;;;;;;;;;5152879;27;20142;-67
2023/01/06 11:58:06;;;;;;;14.40;6.75;;;;;;;;;;5153009;27;20106;-66
2023/01/06 12:00:35;;;;;;;14.63;6.28;;;;;;;;;;5152519;27;20448;-67
2023/01/06 12:03:49;;;;;;;15.60;6.55;;;;;;;;;;5152989;27;20533;-66
2023/01/06 12:06:23;;;;;;;12.25;6.28;;;;;;;;;;5088517;28;20169;-67
2023/01/06 12:09:24;;;;;;;15.65;6.20;;;;;;;;;;5088384;28;20078;-67
2023/01/06 12:11:54;;;;;;;12.95;5.95;;;;;;;;;;5126809;27;20178;-67
2023/01/06 12:14:26;;;;;;;14.35;6.22;;;;;;;;;;5153381;27;20462;-66
2023/01/06 12:17:04;;;;;;;13.68;6.55;;;;;;;;;;5153148;27;20118;-66
2023/01/06 12:19:46;;;;;;;12.57;7.05;;;;;;;;;;5152879;27;20030;-66
2023/01/06 12:22:32;;;;;;;14.90;7.03;;;;;;;;;;5152717;27;20067;-67
2023/01/06 12:24:59;;;;;;;11.98;6.82;;;;;;;;;;5152457;27;20033;-67
2023/01/06 12:27:40;;;;;;;13.00;6.47;;;;;;;;;;5153972;27;20027;-67
2023/01/06 12:30:15;;;;;;;16.33;7.18;;;;;;;;;;5169388;27;20030;-67
2023/01/06 12:32:43;;;;;;;13.98;6.32;;;;;;;;;;5173531;27;20015;-68
2023/01/06 12:35:15;;;;;;;12.10;6.70;;;;;;;;;;5159220;27;20022;-66
2023/01/06 12:37:46;;;;;;;16.98;6.70;;;;;;;;;;5153023;27;20033;-67
2023/01/06 12:40:11;;;;;;;;;;;;;;;;;;5153349;27;20111;-66
2023/01/06 12:42:57;;;;;;;10.73;6.00;;;;;;;;;;5152465;27;19967;-66
2023/01/06 12:45:36;;;;;;;11.63;5.88;;;;;;;;;;5152118;27;20859;-66
2023/01/06 12:48:11;;;;;;;11.98;5.70;;;;;;;;;;5152210;27;20029;-66
2023/01/06 12:50:48;;;;;;;11.88;5.85;;;;;;;;;;5152178;27;20027;-66
2023/01/06 12:53:21;;;;;;;10.23;5.78;;;;;;;;;;5152214;27;20050;-66
2023/01/06 12:56:08;;;;;;;12.43;6.18;;;;;;;;;;5152233;27;20030;-66
2023/01/06 12:58:59;;;;;;;12.57;6.10;;;;;;;;;;5152281;27;20054;-66
2023/01/06 13:01:44;;;;;;;13.27;6.00;;;;;;;;;;5151413;27;20067;-67
2023/01/06 13:04:32;;;;;;;12.88;6.25;;;;;;;;;;5152027;27;20485;-66
2023/01/06 13:07:13;;;;;;;15.88;6.03;;;;;;;;;;5152025;27;20606;-67
2023/01/06 13:09:47;;;;;;;;;;;;;;;;;;5152531;27;20050;-67
2023/01/06 13:12:57;;;;;;;11.75;6.05;;;;;;;;;;5151955;27;19911;-69
2023/01/06 13:15:26;;;;;;;12.43;6.32;;;;;;;;;;5152078;27;20115;-67
2023/01/06 13:18:00;;;;;;;11.75;6.32;;;;;;;;;;5152009;27;20473;-69
2023/01/06 13:20:39;;;;;;;10.52;6.20;;;;;;;;;;5151754;27;20355;-67
2023/01/06 13:23:23;;;;;;;16.48;6.45;;;;;;;;;;5151850;27;20164;-66
2023/01/06 13:25:49;;;;;;;16.15;6.45;;;;;;;;;;5151840;27;20126;-68
2023/01/06 13:28:34;;;;;;;7.65;4.80;;;;;;;;;;5151873;27;20499;-68
2023/01/06 13:31:22;;;;;;;8.07;4.80;;;;;;;;;;5151296;27;20596;-69
2023/01/06 13:34:05;;;;;;;9.07;4.70;;;;;;;;;;5152024;27;20064;-70
2023/01/06 13:36:48;;;;;;;12.32;5.35;;;;;;;;;;5151774;27;20446;-69
2023/01/06 13:39:26;;;;;;;10.82;5.50;;;;;;;;;;5151645;27;20019;-69
2023/01/06 13:41:54;;;;;;;11.38;5.20;;;;;;;;;;5151571;27;20382;-68
2023/01/06 13:44:24;;;;;;;13.13;5.72;;;;;;;;;;5151661;27;20042;-67
2023/01/06 13:46:52;;;;;;;9.77;5.28;;;;;;;;;;5151719;27;20039;-68
2023/01/06 13:49:18;;;;;;;12.13;4.85;;;;;;;;;;5151413;27;20031;-68
2023/01/06 13:51:45;;;;;;;10.80;5.00;;;;;;;;;;5151834;27;20023;-67
2023/01/06 13:54:38;;;;;;;8.82;4.55;;;;;;;;;;5151849;27;20474;-67
2023/01/06 13:57:18;;;;;;;11.27;5.13;;;;;;;;;;5151563;27;20079;-67
2023/01/06 13:59:50;;;;;;;9.32;5.25;;;;;;;;;;5151371;27;20372;-67
2023/01/06 14:02:38;;;;;;;7.63;4.80;;;;;;;;;;5151242;27;20023;-70
2023/01/06 14:05:04;;;;;;;11.32;4.90;;;;;;;;;;5142564;27;20043;-67
2023/01/06 14:07:38;;;;;;;9.25;4.90;;;;;;;;;;5151492;27;20027;-69
2023/01/06 14:10:21;;;;;;;13.50;5.20;;;;;;;;;;5151309;27;20019;-67
2023/01/06 14:12:47;;;;;;;10.60;5.10;;;;;;;;;;5151570;27;20058;-67
2023/01/06 14:15:54;;;;;;;10.85;5.50;;;;;;;;;;5155271;27;20090;-66
2023/01/06 14:18:31;;;;;;;11.70;5.00;;;;;;;;;;5154881;27;20576;-68
2023/01/06 14:21:03;;;;;;;11.00;5.28;;;;;;;;;;5153424;27;20033;-67
2023/01/06 14:23:29;;;;;;;10.70;4.93;;;;;;;;;;5155022;27;20030;-68
2023/01/06 14:25:56;;;;;;;9.63;5.22;;;;;;;;;;5155167;27;20071;-69
2023/01/06 14:28:27;;;;;;;13.98;5.25;;;;;;;;;;5154963;27;20038;-70
2023/01/06 14:31:24;;;;;;;9.10;5.45;;;;;;;;;;5154688;27;20386;-68
2023/01/06 14:33:55;;;;;;;8.65;5.40;;;;;;;;;;5154578;27;20019;-67
2023/01/06 14:36:22;;;;;;;9.48;5.30;;;;;;;;;;5154722;27;20030;-67
2023/01/06 14:38:51;;;;;;;10.35;5.53;;;;;;;;;;5154525;27;20889;-68
2023/01/06 14:41:31;;;;;;;10.95;4.95;;;;;;;;;;5154268;27;20026;-68
2023/01/06 14:44:11;;;;;;;10.70;5.30;;;;;;;;;;5154232;27;20093;-68
2023/01/06 14:46:53;;;;;;;12.55;4.60;;;;;;;;;;5154348;27;20035;-68
2023/01/06 14:49:30;;;;;;;9.45;4.38;;;;;;;;;;5154368;27;20015;-67
2023/01/06 14:51:57;;;;;;;10.68;4.70;;;;;;;;;;5154518;27;20056;-67
2023/01/06 14:54:27;;;;;;;8.88;3.78;;;;;;;;;;5154348;27;20019;-68
2023/01/06 14:56:58;;;;;;;7.72;3.85;;;;;;;;;;5154291;27;20029;-68
2023/01/06 14:59:24;;;;;;;7.32;3.20;;;;;;;;;;5154317;27;20056;-67
2023/01/06 15:01:57;;;;;;;5.10;3.00;;;;;;;;;;5153960;27;20019;-66
2023/01/06 15:04:32;;;;;;;5.63;3.00;;;;;;;;;;5154173;27;20030;-67
2023/01/06 15:07:19;;;;;;;6.10;3.35;;;;;;;;;;5154498;27;20135;-68
2023/01/06 15:09:49;;;;;;;7.85;3.35;;;;;;;;;;5153975;27;20030;-68